Time,TemperatureF,DewpointF,PressureIn,WindDirection,WindDirectionDegrees,WindSpeedMPH,WindSpeedGustMPH,Humidity,HourlyPrecipIn,Conditions,Clouds,dailyrainin,SoftwareType,DateUTC
2013-04-23 00:00:00,33.8,30.4,29.24,North,0,3.4,3.4,87,0.00,,---,0.31,VWS V13.01,2013-04-23 05:00:00,
2013-04-23 00:05:00,33.6,30.1,29.24,North,0,12.8,12.8,87,0.00,,---,0.00,VWS V13.01,2013-04-23 05:05:00,
2013-04-23 00:10:00,33.6,30.4,29.23,NW,315,18.6,18.6,88,0.00,,---,0.00,VWS V13.01,2013-04-23 05:10:00,
2013-04-23 00:15:00,33.4,30.2,29.23,NNW,338,12.0,12.0,88,0.00,,---,0.00,VWS V13.01,2013-04-23 05:15:00,
2013-04-23 00:21:00,33.4,30.2,29.22,North,0,0.0,17.8,88,0.00,,---,0.00,VWS V13.01,2013-04-23 05:21:00,
2013-04-23 00:27:00,33.2,30.0,29.22,North,0,0.0,0.0,88,0.00,,---,0.00,VWS V13.01,2013-04-23 05:27:00,
2013-04-23 00:32:00,33.0,29.8,29.21,NNW,338,0.0,16.4,88,0.00,,---,0.00,VWS V13.01,2013-04-23 05:32:00,
2013-04-23 00:37:00,33.0,29.6,29.20,NNW,338,0.0,0.0,87,0.00,,---,0.00,VWS V13.01,2013-04-23 05:37:00,
2013-04-23 00:42:00,33.0,29.6,29.20,NNW,338,0.0,0.0,87,0.00,,---,0.00,VWS V13.01,2013-04-23 05:42:00,
2013-04-23 00:47:00,33.0,29.6,29.20,NNE,22,0.0,0.0,87,0.00,,---,0.00,VWS V13.01,2013-04-23 05:47:00,
2013-04-23 00:52:00,32.9,29.5,29.20,North,0,0.0,0.0,87,0.00,,---,0.00,VWS V13.01,2013-04-23 05:52:00,
2013-04-23 00:57:00,32.9,29.5,29.20,NNW,338,6.6,6.6,87,0.00,,---,0.00,VWS V13.01,2013-04-23 05:57:00,
2013-04-23 01:03:00,32.9,29.5,29.23,North,0,0.0,0.0,87,0.00,,---,0.00,VWS V13.01,2013-04-23 06:03:00,
2013-04-23 01:08:00,32.9,29.5,29.23,NNW,338,0.0,0.0,87,0.00,,---,0.00,VWS V13.01,2013-04-23 06:08:00,
2013-04-23 01:13:00,32.7,29.3,29.23,NNW,338,0.0,0.0,87,0.00,,---,0.00,VWS V13.01,2013-04-23 06:13:00,
2013-04-23 01:19:00,32.7,29.3,29.25,NNW,338,0.0,0.0,87,0.00,,---,0.00,VWS V13.01,2013-04-23 06:19:00,
2013-04-23 01:24:00,32.7,29.3,29.25,NNW,338,0.0,0.0,87,0.00,,---,0.00,VWS V13.01,2013-04-23 06:24:00,
2013-04-23 01:29:00,32.7,29.3,29.24,NNW,338,0.0,0.0,87,0.00,,---,0.00,VWS V13.01,2013-04-23 06:29:00,
2013-04-23 01:34:00,32.7,29.3,29.23,North,0,11.6,11.6,87,0.00,,---,0.00,VWS V13.01,2013-04-23 06:34:00,
2013-04-23 01:39:00,32.7,29.3,29.22,NW,315,21.8,21.8,87,0.00,,---,0.00,VWS V13.01,2013-04-23 06:39:00,
2013-04-23 01:44:00,32.7,29.3,29.22,North,0,6.2,6.2,87,0.00,,---,0.00,VWS V13.01,2013-04-23 06:44:00,
2013-04-23 01:49:00,32.7,29.3,29.21,North,0,17.4,17.4,87,0.00,,---,0.00,VWS V13.01,2013-04-23 06:49:00,
2013-04-23 01:54:00,32.7,29.3,29.22,North,0,3.4,6.6,87,0.00,,---,0.00,VWS V13.01,2013-04-23 06:54:00,
2013-04-23 01:59:00,32.7,29.0,29.23,NNE,22,7.0,7.0,86,0.00,,---,0.00,VWS V13.01,2013-04-23 06:59:00,
2013-04-23 02:04:00,32.7,29.0,29.23,NNE,22,12.8,12.8,86,0.00,,---,0.00,VWS V13.01,2013-04-23 07:04:00,
2013-04-23 02:09:00,32.7,29.0,29.23,NNW,338,0.0,15.2,86,0.00,,---,0.00,VWS V13.01,2013-04-23 07:09:00,
2013-04-23 02:14:00,32.7,29.0,29.24,NNW,338,21.0,21.0,86,0.00,,---,0.00,VWS V13.01,2013-04-23 07:14:00,
2013-04-23 02:19:00,32.7,29.0,29.25,NNW,338,21.8,21.8,86,0.00,,---,0.00,VWS V13.01,2013-04-23 07:19:00,
2013-04-23 02:24:00,32.7,29.0,29.26,WNW,292,34.8,34.8,86,0.00,,---,0.00,VWS V13.01,2013-04-23 07:24:00,
2013-04-23 02:29:00,32.7,29.0,29.26,NW,315,21.4,21.4,86,0.00,,---,0.00,VWS V13.01,2013-04-23 07:29:00,
2013-04-23 02:34:00,32.7,29.0,29.25,North,0,16.4,26.8,86,0.00,,---,0.00,VWS V13.01,2013-04-23 07:34:00,
2013-04-23 02:39:00,32.7,29.0,29.25,NNW,338,9.2,11.6,86,0.00,,---,0.00,VWS V13.01,2013-04-23 07:39:00,
2013-04-23 02:44:00,32.7,29.0,29.24,NW,315,3.0,3.0,86,0.00,,---,0.00,VWS V13.01,2013-04-23 07:44:00,
2013-04-23 02:49:00,32.5,29.1,29.23,NNW,338,0.8,0.8,87,0.00,,---,0.00,VWS V13.01,2013-04-23 07:49:00,
2013-04-23 02:54:00,32.5,29.1,29.23,NW,315,17.0,17.0,87,0.00,,---,0.00,VWS V13.01,2013-04-23 07:54:00,
2013-04-23 02:59:00,32.3,28.9,29.24,NNE,22,8.0,8.0,87,0.00,,---,0.00,VWS V13.01,2013-04-23 07:59:00,
2013-04-23 03:04:00,32.3,28.9,29.24,North,0,10.2,10.2,87,0.00,,---,0.00,VWS V13.01,2013-04-23 08:04:00,
2013-04-23 03:09:00,32.3,28.9,29.23,NW,315,25.0,25.0,87,0.00,,---,0.00,VWS V13.01,2013-04-23 08:09:00,
2013-04-23 03:14:00,32.3,28.9,29.23,NNE,22,10.2,10.2,87,0.00,,---,0.00,VWS V13.01,2013-04-23 08:14:00,
2013-04-23 03:20:00,32.3,28.9,29.24,North,0,12.8,12.8,87,0.00,,---,0.00,VWS V13.01,2013-04-23 08:20:00,
2013-04-23 03:25:00,32.5,29.1,29.24,NNW,338,12.0,12.0,87,0.00,,---,0.00,VWS V13.01,2013-04-23 08:25:00,
2013-04-23 03:30:00,32.5,29.1,29.25,NW,315,29.0,29.0,87,0.00,,---,0.00,VWS V13.01,2013-04-23 08:30:00,
2013-04-23 03:35:00,32.3,28.6,29.25,NW,315,31.2,31.2,86,0.00,,---,0.00,VWS V13.01,2013-04-23 08:35:00,
2013-04-23 03:40:00,32.3,28.6,29.26,NW,315,17.4,17.4,86,0.00,,---,0.00,VWS V13.01,2013-04-23 08:40:00,
2013-04-23 03:45:00,32.3,28.6,29.24,NW,315,12.8,12.8,86,0.00,,---,0.00,VWS V13.01,2013-04-23 08:45:00,
2013-04-23 03:50:00,32.3,28.6,29.22,North,0,11.0,11.0,86,0.00,,---,0.00,VWS V13.01,2013-04-23 08:50:00,
2013-04-23 03:55:00,32.3,28.6,29.23,NW,315,12.0,12.0,86,0.00,,---,0.00,VWS V13.01,2013-04-23 08:55:00,
2013-04-23 04:00:00,32.3,28.6,29.23,NNW,338,17.4,17.4,86,0.00,,---,0.00,VWS V13.01,2013-04-23 09:00:00,
2013-04-23 04:05:00,32.3,28.6,29.23,NNW,338,13.4,15.2,86,0.00,,---,0.00,VWS V13.01,2013-04-23 09:05:00,
2013-04-23 04:10:00,32.3,28.6,29.22,NNE,22,8.8,8.8,86,0.00,,---,0.00,VWS V13.01,2013-04-23 09:10:00,
2013-04-23 04:15:00,32.3,28.6,29.22,NNE,22,18.6,18.6,86,0.00,,---,0.00,VWS V13.01,2013-04-23 09:15:00,
2013-04-23 04:20:00,32.3,28.6,29.23,NNE,22,10.2,10.2,86,0.00,,---,0.00,VWS V13.01,2013-04-23 09:20:00,
2013-04-23 04:25:00,32.1,28.4,29.23,NNE,22,5.2,5.2,86,0.00,,---,0.00,VWS V13.01,2013-04-23 09:25:00,
2013-04-23 04:30:00,32.1,28.4,29.24,NNE,22,5.8,5.8,86,0.00,,---,0.00,VWS V13.01,2013-04-23 09:30:00,
2013-04-23 04:35:00,32.1,28.4,29.25,NNE,22,11.0,11.0,86,0.00,,---,0.00,VWS V13.01,2013-04-23 09:35:00,
2013-04-23 04:40:00,32.1,28.1,29.26,NNE,22,26.2,26.2,85,0.00,,---,0.00,VWS V13.01,2013-04-23 09:40:00,
2013-04-23 04:45:00,32.3,28.3,29.25,NNE,22,12.8,12.8,85,0.00,,---,0.00,VWS V13.01,2013-04-23 09:45:00,
2013-04-23 04:50:00,32.1,28.1,29.26,NNE,22,12.0,12.0,85,0.00,,---,0.00,VWS V13.01,2013-04-23 09:50:00,
2013-04-23 04:55:00,32.1,28.1,29.27,NNE,22,11.6,11.6,85,0.00,,---,0.00,VWS V13.01,2013-04-23 09:55:00,
2013-04-23 05:00:00,32.3,28.3,29.28,NNE,22,14.6,14.6,85,0.00,,---,0.00,VWS V13.01,2013-04-23 10:00:00,
2013-04-23 05:05:00,32.1,28.1,29.28,NNE,22,20.4,20.4,85,0.00,,---,0.00,VWS V13.01,2013-04-23 10:05:00,
2013-04-23 05:10:00,32.3,28.3,29.28,NNE,22,5.8,5.8,85,0.00,,---,0.00,VWS V13.01,2013-04-23 10:10:00,
2013-04-23 05:15:00,32.1,28.1,29.27,NNE,22,12.8,12.8,85,0.00,,---,0.00,VWS V13.01,2013-04-23 10:15:00,
2013-04-23 05:20:00,32.1,28.1,29.27,NNE,22,11.0,11.0,85,0.00,,---,0.00,VWS V13.01,2013-04-23 10:20:00,
2013-04-23 05:26:00,32.1,28.1,29.28,NNE,22,10.2,18.2,85,0.00,,---,0.00,VWS V13.01,2013-04-23 10:26:00,
2013-04-23 05:31:00,32.1,28.1,29.27,NNE,22,12.8,12.8,85,0.00,,---,0.00,VWS V13.01,2013-04-23 10:31:00,
2013-04-23 05:36:00,32.1,28.1,29.27,NNE,22,13.8,13.8,85,0.00,,---,0.00,VWS V13.01,2013-04-23 10:36:00,
2013-04-23 05:41:00,32.1,28.1,29.26,NNE,22,14.6,14.6,85,0.00,,---,0.00,VWS V13.01,2013-04-23 10:41:00,
2013-04-23 05:46:00,32.0,28.0,29.27,NNE,22,10.2,10.2,85,0.00,,---,0.00,VWS V13.01,2013-04-23 10:46:00,
2013-04-23 05:51:00,32.1,28.1,29.25,NNE,22,0.0,0.0,85,0.00,,---,0.00,VWS V13.01,2013-04-23 10:51:00,
2013-04-23 05:56:00,31.8,27.8,29.26,NNE,22,12.8,12.8,85,0.00,,---,0.00,VWS V13.01,2013-04-23 10:56:00,
2013-04-23 06:01:00,31.8,27.8,29.25,NNE,22,17.0,17.0,85,0.00,,---,0.00,VWS V13.01,2013-04-23 11:01:00,
2013-04-23 06:06:00,31.8,27.5,29.25,NNE,22,10.2,10.2,84,0.00,,---,0.00,VWS V13.01,2013-04-23 11:06:00,
2013-04-23 06:11:00,31.8,27.5,29.25,NNE,22,8.0,8.0,84,0.00,,---,0.00,VWS V13.01,2013-04-23 11:11:00,
2013-04-23 06:16:00,31.8,27.5,29.25,NNE,22,10.6,10.6,84,0.00,,---,0.00,VWS V13.01,2013-04-23 11:16:00,
2013-04-23 06:21:00,31.8,27.5,29.26,NNE,22,14.6,14.6,84,0.00,,---,0.00,VWS V13.01,2013-04-23 11:21:00,
2013-04-23 06:26:00,31.8,27.5,29.25,NNE,22,22.8,22.8,84,0.00,,---,0.00,VWS V13.01,2013-04-23 11:26:00,
2013-04-23 06:31:00,31.8,27.5,29.26,NNE,22,17.0,17.0,84,0.00,,---,0.00,VWS V13.01,2013-04-23 11:31:00,
2013-04-23 06:36:00,31.8,27.5,29.26,NNE,22,15.2,15.2,84,0.00,,---,0.00,VWS V13.01,2013-04-23 11:36:00,
2013-04-23 06:41:00,31.6,27.3,29.26,NNE,22,24.6,24.6,84,0.00,,---,0.00,VWS V13.01,2013-04-23 11:41:00,
2013-04-23 06:46:00,31.6,27.3,29.27,NNE,22,12.8,12.8,84,0.00,,---,0.00,VWS V13.01,2013-04-23 11:46:00,
2013-04-23 06:51:00,31.6,27.3,29.27,NNE,22,4.0,4.0,84,0.00,,---,0.00,VWS V13.01,2013-04-23 11:51:00,
2013-04-23 06:56:00,31.6,27.3,29.27,NNE,22,10.6,18.6,84,0.00,,---,0.00,VWS V13.01,2013-04-23 11:56:00,
2013-04-23 07:01:00,31.6,27.3,29.27,NNE,22,12.8,12.8,84,0.00,,---,0.00,VWS V13.01,2013-04-23 12:01:00,
2013-04-23 07:06:00,31.6,27.3,29.27,NNE,22,3.0,3.0,84,0.00,,---,0.00,VWS V13.01,2013-04-23 12:06:00,
2013-04-23 07:11:00,31.6,27.3,29.27,NNE,22,4.4,4.4,84,0.00,,---,0.00,VWS V13.01,2013-04-23 12:11:00,
2013-04-23 07:16:00,31.2,26.9,29.27,NNE,22,11.0,11.0,84,0.00,,---,0.00,VWS V13.01,2013-04-23 12:16:00,
2013-04-23 07:21:00,31.2,26.9,29.27,NNE,22,9.2,9.2,84,0.00,,---,0.00,VWS V13.01,2013-04-23 12:21:00,
2013-04-23 07:26:00,31.2,26.9,29.26,NNE,22,4.8,29.8,84,0.00,,---,0.00,VWS V13.01,2013-04-23 12:26:00,
2013-04-23 07:31:00,31.2,26.9,29.25,NNE,22,13.8,13.8,84,0.00,,---,0.00,VWS V13.01,2013-04-23 12:31:00,
2013-04-23 07:36:00,31.2,26.9,29.26,NNE,22,15.6,15.6,84,0.00,,---,0.00,VWS V13.01,2013-04-23 12:36:00,
2013-04-23 07:41:00,31.2,26.9,29.26,NNE,22,11.0,11.0,84,0.00,,---,0.00,VWS V13.01,2013-04-23 12:41:00,
2013-04-23 07:46:00,31.2,26.9,29.25,NNE,22,11.0,11.0,84,0.00,,---,0.00,VWS V13.01,2013-04-23 12:46:00,
2013-04-23 07:51:00,31.2,26.9,29.26,NNE,22,9.8,9.8,84,0.00,,---,0.00,VWS V13.01,2013-04-23 12:51:00,
2013-04-23 07:56:00,31.2,26.9,29.25,NNE,22,23.6,23.6,84,0.00,,---,0.00,VWS V13.01,2013-04-23 12:56:00,
2013-04-23 08:01:00,31.2,26.9,29.25,NNE,22,9.8,9.8,84,0.00,,---,0.00,VWS V13.01,2013-04-23 13:01:00,
2013-04-23 08:06:00,31.2,26.9,29.25,NNE,22,20.0,20.0,84,0.00,,---,0.00,VWS V13.01,2013-04-23 13:06:00,
2013-04-23 08:11:00,31.6,27.3,29.25,NNE,22,16.4,16.4,84,0.00,,---,0.00,VWS V13.01,2013-04-23 13:11:00,
2013-04-23 08:16:00,31.2,26.9,29.25,NNE,22,19.2,19.2,84,0.00,,---,0.00,VWS V13.01,2013-04-23 13:16:00,
2013-04-23 08:21:00,31.6,27.3,29.27,NNE,22,13.8,13.8,84,0.00,,---,0.00,VWS V13.01,2013-04-23 13:21:00,
2013-04-23 08:26:00,31.6,27.3,29.27,NNE,22,11.0,11.0,84,0.00,,---,0.00,VWS V13.01,2013-04-23 13:26:00,
2013-04-23 08:31:00,31.6,27.0,29.28,NNE,22,6.2,6.2,83,0.00,,---,0.00,VWS V13.01,2013-04-23 13:31:00,
2013-04-23 08:36:00,31.6,27.0,29.28,NNE,22,8.4,8.4,83,0.00,,---,0.00,VWS V13.01,2013-04-23 13:36:00,
2013-04-23 08:41:00,31.6,27.0,29.27,NNE,22,22.2,22.2,83,0.00,,---,0.00,VWS V13.01,2013-04-23 13:41:00,
2013-04-23 08:46:00,31.8,27.2,29.28,NNE,22,14.6,14.6,83,0.00,,---,0.00,VWS V13.01,2013-04-23 13:46:00,
2013-04-23 08:51:00,31.8,27.2,29.28,NNE,22,20.4,20.4,83,0.00,,---,0.00,VWS V13.01,2013-04-23 13:51:00,
2013-04-23 08:56:00,31.8,27.2,29.27,NNE,22,10.6,10.6,83,0.00,,---,0.00,VWS V13.01,2013-04-23 13:56:00,
2013-04-23 09:01:00,31.8,27.2,29.28,NNE,22,8.0,8.0,83,0.00,,---,0.00,VWS V13.01,2013-04-23 14:01:00,
2013-04-23 09:06:00,31.8,27.2,29.27,NNE,22,9.2,9.2,83,0.00,,---,0.00,VWS V13.01,2013-04-23 14:06:00,
2013-04-23 09:11:00,31.6,26.8,29.28,NNE,22,6.2,18.6,82,0.00,,---,0.00,VWS V13.01,2013-04-23 14:11:00,
2013-04-23 09:16:00,31.8,27.2,29.28,NNE,22,6.2,6.2,83,0.00,,---,0.00,VWS V13.01,2013-04-23 14:16:00,
2013-04-23 09:21:00,31.8,27.2,29.28,NNW,338,15.2,15.2,83,0.00,,---,0.00,VWS V13.01,2013-04-23 14:21:00,
2013-04-23 09:26:00,32.0,27.4,29.28,North,0,11.0,11.0,83,0.00,,---,0.00,VWS V13.01,2013-04-23 14:26:00,
2013-04-23 09:31:00,32.0,27.4,29.28,NNE,22,22.2,22.2,83,0.00,,---,0.00,VWS V13.01,2013-04-23 14:31:00,
2013-04-23 09:36:00,32.1,27.5,29.28,NW,315,5.8,5.8,83,0.00,,---,0.00,VWS V13.01,2013-04-23 14:36:00,
2013-04-23 09:41:00,31.8,26.9,29.28,North,0,11.6,20.4,82,0.00,,---,0.00,VWS V13.01,2013-04-23 14:41:00,
2013-04-23 09:46:00,32.0,27.1,29.28,NNW,338,12.4,12.4,82,0.00,,---,0.00,VWS V13.01,2013-04-23 14:46:00,
2013-04-23 09:51:00,31.8,26.9,29.29,North,0,7.0,19.2,82,0.00,,---,0.00,VWS V13.01,2013-04-23 14:51:00,
2013-04-23 09:56:00,32.1,27.2,29.29,North,0,15.6,15.6,82,0.00,,---,0.00,VWS V13.01,2013-04-23 14:56:00,
2013-04-23 10:01:00,32.1,27.2,29.29,NW,315,6.2,6.2,82,0.00,,---,0.00,VWS V13.01,2013-04-23 15:01:00,
2013-04-23 10:06:00,32.1,27.2,29.29,NW,315,20.0,20.0,82,0.00,,---,0.00,VWS V13.01,2013-04-23 15:06:00,
2013-04-23 10:11:00,31.8,27.2,29.28,NW,315,17.4,17.4,83,0.00,,---,0.00,VWS V13.01,2013-04-23 15:11:00,
2013-04-23 10:16:00,31.8,27.2,29.28,North,0,7.6,7.6,83,0.00,,---,0.00,VWS V13.01,2013-04-23 15:16:00,
2013-04-23 10:21:00,31.8,27.2,29.29,North,0,11.0,12.8,83,0.00,,---,0.00,VWS V13.01,2013-04-23 15:21:00,
2013-04-23 10:26:00,31.8,27.2,29.28,North,0,13.8,13.8,83,0.00,,---,0.00,VWS V13.01,2013-04-23 15:26:00,
2013-04-23 10:31:00,31.8,27.2,29.28,NNW,338,10.2,10.2,83,0.00,,---,0.00,VWS V13.01,2013-04-23 15:31:00,
2013-04-23 10:36:00,32.1,27.5,29.28,NNW,338,23.6,23.6,83,0.00,,---,0.00,VWS V13.01,2013-04-23 15:36:00,
2013-04-23 10:41:00,32.1,27.5,29.29,North,0,5.8,13.8,83,0.00,,---,0.00,VWS V13.01,2013-04-23 15:41:00,
2013-04-23 10:46:00,32.3,27.4,29.28,WNW,292,7.0,7.0,82,0.00,,---,0.00,VWS V13.01,2013-04-23 15:46:00,
2013-04-23 10:51:00,32.1,27.2,29.28,North,0,12.8,12.8,82,0.00,,---,0.00,VWS V13.01,2013-04-23 15:51:00,
2013-04-23 10:56:00,32.1,27.2,29.28,NNE,22,23.2,23.2,82,0.00,,---,0.00,VWS V13.01,2013-04-23 15:56:00,
2013-04-23 11:01:00,32.1,27.2,29.28,NNE,22,14.6,14.6,82,0.00,,---,0.00,VWS V13.01,2013-04-23 16:01:00,
2013-04-23 11:06:00,32.3,27.4,29.28,NNW,338,7.6,14.6,82,0.00,,---,0.00,VWS V13.01,2013-04-23 16:06:00,
2013-04-23 11:11:00,32.5,27.6,29.29,NNW,338,16.0,16.0,82,0.00,,---,0.00,VWS V13.01,2013-04-23 16:11:00,
2013-04-23 11:16:00,32.5,27.6,29.29,NNW,338,11.0,11.0,82,0.00,,---,0.00,VWS V13.01,2013-04-23 16:16:00,
2013-04-23 11:21:00,32.5,27.3,29.29,NE,45,25.8,25.8,81,0.00,,---,0.00,VWS V13.01,2013-04-23 16:21:00,
2013-04-23 11:26:00,32.7,27.5,29.29,North,0,4.0,17.0,81,0.00,,---,0.00,VWS V13.01,2013-04-23 16:26:00,
2013-04-23 11:31:00,32.7,27.5,29.28,North,0,27.6,27.6,81,0.00,,---,0.00,VWS V13.01,2013-04-23 16:31:00,
2013-04-23 11:36:00,32.9,27.7,29.28,NNE,22,18.6,18.6,81,0.00,,---,0.00,VWS V13.01,2013-04-23 16:36:00,
2013-04-23 11:41:00,33.6,28.4,29.28,NNE,22,9.2,19.6,81,0.00,,---,0.00,VWS V13.01,2013-04-23 16:41:00,
2013-04-23 11:46:00,33.6,28.1,29.28,North,0,12.0,12.0,80,0.00,,---,0.00,VWS V13.01,2013-04-23 16:46:00,
2013-04-23 11:51:00,34.3,28.8,29.28,NW,315,13.8,13.8,80,0.00,,---,0.00,VWS V13.01,2013-04-23 16:51:00,
2013-04-23 11:56:00,34.8,29.3,29.28,North,0,12.8,12.8,80,0.00,,---,0.00,VWS V13.01,2013-04-23 16:56:00,
2013-04-23 12:01:00,35.4,29.5,29.27,NNE,22,31.2,31.2,79,0.00,,---,0.00,VWS V13.01,2013-04-23 17:01:00,
2013-04-23 12:06:00,35.7,29.5,29.28,North,0,22.8,22.8,78,0.00,,---,0.00,VWS V13.01,2013-04-23 17:06:00,
2013-04-23 12:11:00,35.7,29.5,29.28,NNE,22,9.2,11.0,78,0.00,,---,0.00,VWS V13.01,2013-04-23 17:11:00,
2013-04-23 12:16:00,36.1,29.9,29.27,NNE,22,28.0,28.0,78,0.00,,---,0.00,VWS V13.01,2013-04-23 17:16:00,
2013-04-23 12:21:00,36.3,29.8,29.26,NE,45,10.2,10.2,77,0.00,,---,0.00,VWS V13.01,2013-04-23 17:21:00,
2013-04-23 12:26:00,36.6,29.8,29.28,NNW,338,17.8,20.0,76,0.00,,---,0.00,VWS V13.01,2013-04-23 17:26:00,
2013-04-23 12:31:00,36.8,30.0,29.27,NNE,22,7.0,7.0,76,0.00,,---,0.00,VWS V13.01,2013-04-23 17:31:00,
2013-04-23 12:36:00,37.2,30.0,29.27,NNE,22,17.8,17.8,75,0.00,,---,0.00,VWS V13.01,2013-04-23 17:36:00,
2013-04-23 12:41:00,37.2,30.0,29.26,North,0,27.2,27.2,75,0.00,,---,0.00,VWS V13.01,2013-04-23 17:41:00,
2013-04-23 12:46:00,37.2,29.7,29.26,NNE,22,17.0,17.0,74,0.00,,---,0.00,VWS V13.01,2013-04-23 17:46:00,
2013-04-23 12:51:00,37.4,30.2,29.26,NNW,338,12.0,25.8,75,0.00,,---,0.00,VWS V13.01,2013-04-23 17:51:00,
2013-04-23 12:56:00,37.7,30.2,29.27,North,0,24.6,24.6,74,0.00,,---,0.00,VWS V13.01,2013-04-23 17:56:00,
2013-04-23 13:01:00,37.9,30.0,29.27,NNE,22,3.4,3.4,73,0.00,,---,0.00,VWS V13.01,2013-04-23 18:01:00,
2013-04-23 13:06:00,38.1,29.9,29.27,NNE,22,0.0,0.0,72,0.00,,---,0.00,VWS V13.01,2013-04-23 18:06:00,
2013-04-23 13:11:00,37.9,29.4,29.26,North,0,7.0,30.8,71,0.00,,---,0.00,VWS V13.01,2013-04-23 18:11:00,
2013-04-23 13:16:00,37.9,29.4,29.26,NNE,22,9.8,9.8,71,0.00,,---,0.00,VWS V13.01,2013-04-23 18:16:00,
2013-04-23 13:21:00,37.9,29.4,29.25,NNE,22,9.8,9.8,71,0.00,,---,0.00,VWS V13.01,2013-04-23 18:21:00,
2013-04-23 13:26:00,38.1,29.5,29.25,NNE,22,12.8,14.2,71,0.00,,---,0.00,VWS V13.01,2013-04-23 18:26:00,
2013-04-23 13:31:00,38.4,29.8,29.25,North,0,11.6,11.6,71,0.00,,---,0.00,VWS V13.01,2013-04-23 18:31:00,
2013-04-23 13:36:00,39.0,30.4,29.25,NE,45,23.6,23.6,71,0.00,,---,0.00,VWS V13.01,2013-04-23 18:36:00,
2013-04-23 13:41:00,39.3,30.4,29.25,NNE,22,19.2,19.2,70,0.00,,---,0.00,VWS V13.01,2013-04-23 18:41:00,
2013-04-23 13:47:00,39.3,30.0,29.25,NNW,338,34.0,34.0,69,0.00,,---,0.00,VWS V13.01,2013-04-23 18:47:00,
2013-04-23 13:52:00,39.2,29.5,29.25,NNW,338,8.8,8.8,68,0.00,,---,0.00,VWS V13.01,2013-04-23 18:52:00,
2013-04-23 13:57:00,38.8,29.2,29.25,NNW,338,6.6,6.6,68,0.00,,---,0.00,VWS V13.01,2013-04-23 18:57:00,
2013-04-23 14:02:00,38.8,29.5,29.25,NE,45,12.4,20.0,69,0.00,,---,0.00,VWS V13.01,2013-04-23 19:02:00,
2013-04-23 14:07:00,39.0,29.7,29.25,NNW,338,3.0,3.0,69,0.00,,---,0.00,VWS V13.01,2013-04-23 19:07:00,
2013-04-23 14:12:00,39.3,29.6,29.25,North,0,13.8,13.8,68,0.00,,---,0.00,VWS V13.01,2013-04-23 19:12:00,
2013-04-23 14:17:00,39.0,29.4,29.25,North,0,2.2,8.4,68,0.00,,---,0.00,VWS V13.01,2013-04-23 19:17:00,
2013-04-23 14:22:00,39.3,29.6,29.25,North,0,14.2,14.2,68,0.00,,---,0.00,VWS V13.01,2013-04-23 19:22:00,
2013-04-23 14:27:00,39.0,29.0,29.25,NNW,338,14.2,14.2,67,0.00,,---,0.00,VWS V13.01,2013-04-23 19:27:00,
2013-04-23 14:33:00,38.8,28.8,29.25,NW,315,4.4,4.4,67,0.00,,---,0.00,VWS V13.01,2013-04-23 19:33:00,
2013-04-23 14:38:00,38.8,28.4,29.25,NNW,338,9.8,9.8,66,0.00,,---,0.00,VWS V13.01,2013-04-23 19:38:00,
2013-04-23 14:43:00,39.0,28.6,29.25,NW,315,2.2,12.8,66,0.00,,---,0.00,VWS V13.01,2013-04-23 19:43:00,
2013-04-23 14:48:00,39.0,28.6,29.25,North,0,6.6,6.6,66,0.00,,---,0.00,VWS V13.01,2013-04-23 19:48:00,
2013-04-23 14:53:00,39.0,28.6,29.25,NW,315,16.4,16.4,66,0.00,,---,0.00,VWS V13.01,2013-04-23 19:53:00,
2013-04-23 14:59:00,39.2,29.2,29.25,North,0,12.8,12.8,67,0.00,,---,0.00,VWS V13.01,2013-04-23 19:59:00,
2013-04-23 15:04:00,39.3,28.5,29.25,North,0,7.0,25.8,65,0.00,,---,0.00,VWS V13.01,2013-04-23 20:04:00,
2013-04-23 15:09:00,39.3,28.9,29.25,NW,315,8.4,13.8,66,0.00,,---,0.00,VWS V13.01,2013-04-23 20:09:00,
2013-04-23 15:14:00,39.3,28.5,29.25,NW,315,20.0,20.0,65,0.00,,---,0.00,VWS V13.01,2013-04-23 20:14:00,
2013-04-23 15:19:00,39.7,28.9,29.25,NNE,22,8.0,8.0,65,0.00,,---,0.00,VWS V13.01,2013-04-23 20:19:00,
2013-04-23 15:25:00,39.7,28.9,29.25,NNW,338,19.6,19.6,65,0.00,,---,0.00,VWS V13.01,2013-04-23 20:25:00,
2013-04-23 15:30:00,39.5,28.4,29.25,North,0,6.6,14.6,64,0.00,,---,0.00,VWS V13.01,2013-04-23 20:30:00,
2013-04-23 15:35:00,39.5,28.4,29.25,NNW,338,21.0,21.0,64,0.00,,---,0.00,VWS V13.01,2013-04-23 20:35:00,
2013-04-23 15:40:00,39.5,28.7,29.24,NNE,22,23.6,23.6,65,0.00,,---,0.00,VWS V13.01,2013-04-23 20:40:00,
2013-04-23 15:45:00,39.7,28.9,29.24,North,0,2.2,8.0,65,0.00,,---,0.00,VWS V13.01,2013-04-23 20:45:00,
2013-04-23 15:50:00,39.9,29.1,29.25,NNW,338,11.0,11.0,65,0.00,,---,0.00,VWS V13.01,2013-04-23 20:50:00,
2013-04-23 15:55:00,39.7,28.5,29.25,North,0,11.0,11.0,64,0.00,,---,0.00,VWS V13.01,2013-04-23 20:55:00,
2013-04-23 16:00:00,39.9,29.1,29.25,NNW,338,13.8,13.8,65,0.00,,---,0.00,VWS V13.01,2013-04-23 21:00:00,
2013-04-23 16:05:00,39.9,28.3,29.25,NNW,338,10.2,10.2,63,0.00,,---,0.00,VWS V13.01,2013-04-23 21:05:00,
2013-04-23 16:10:00,39.7,28.1,29.24,NW,315,13.8,13.8,63,0.00,,---,0.00,VWS V13.01,2013-04-23 21:10:00,
2013-04-23 16:15:00,39.7,27.8,29.24,NW,315,22.2,22.2,62,0.00,,---,0.00,VWS V13.01,2013-04-23 21:15:00,
2013-04-23 16:20:00,39.7,27.8,29.24,NW,315,21.0,21.0,62,0.00,,---,0.00,VWS V13.01,2013-04-23 21:20:00,
2013-04-23 16:25:00,39.7,28.1,29.23,NNW,338,11.0,11.0,63,0.00,,---,0.00,VWS V13.01,2013-04-23 21:25:00,
2013-04-23 16:30:00,39.9,28.0,29.23,North,0,6.6,6.6,62,0.00,,---,0.00,VWS V13.01,2013-04-23 21:30:00,
2013-04-23 16:35:00,39.9,28.0,29.23,NNW,338,14.2,14.2,62,0.00,,---,0.00,VWS V13.01,2013-04-23 21:35:00,
2013-04-23 16:40:00,39.9,27.6,29.23,NW,315,21.0,21.0,61,0.00,,---,0.00,VWS V13.01,2013-04-23 21:40:00,
2013-04-23 16:45:00,40.2,28.2,29.23,NNW,338,0.0,14.6,62,0.00,,---,0.00,VWS V13.01,2013-04-23 21:45:00,
2013-04-23 16:50:00,40.6,28.2,29.24,NNW,338,15.2,15.2,61,0.00,,---,0.00,VWS V13.01,2013-04-23 21:50:00,
2013-04-23 16:55:00,40.2,27.4,29.24,NW,315,16.0,16.0,60,0.00,,---,0.00,VWS V13.01,2013-04-23 21:55:00,
2013-04-23 17:00:00,39.9,26.8,29.24,North,0,14.6,22.8,59,0.00,,---,0.00,VWS V13.01,2013-04-23 22:00:00,
2013-04-23 17:05:00,39.9,27.2,29.23,NW,315,21.8,21.8,60,0.00,,---,0.00,VWS V13.01,2013-04-23 22:05:00,
2013-04-23 17:10:00,39.9,26.8,29.23,NNW,338,13.8,13.8,59,0.00,,---,0.00,VWS V13.01,2013-04-23 22:10:00,
2013-04-23 17:16:00,40.1,26.9,29.24,North,0,25.4,25.4,59,0.00,,---,0.00,VWS V13.01,2013-04-23 22:16:00,
2013-04-23 17:21:00,40.2,27.0,29.24,NE,45,11.6,12.0,59,0.00,,---,0.00,VWS V13.01,2013-04-23 22:21:00,
2013-04-23 17:26:00,40.2,26.6,29.23,NNE,22,16.4,16.4,58,0.00,,---,0.00,VWS V13.01,2013-04-23 22:26:00,
2013-04-23 17:31:00,39.9,26.3,29.23,WNW,292,18.6,18.6,58,0.00,,---,0.00,VWS V13.01,2013-04-23 22:31:00,
2013-04-23 17:36:00,40.1,26.1,29.23,NW,315,8.4,12.8,57,0.00,,---,0.00,VWS V13.01,2013-04-23 22:36:00,
2013-04-23 17:42:00,39.9,26.3,29.23,NNW,338,17.0,17.0,58,0.00,,---,0.00,VWS V13.01,2013-04-23 22:42:00,
2013-04-23 17:47:00,39.3,26.2,29.23,NNW,338,14.6,14.6,59,0.00,,---,0.00,VWS V13.01,2013-04-23 22:47:00,
2013-04-23 17:52:00,39.0,26.3,29.23,NW,315,13.8,13.8,60,0.00,,---,0.00,VWS V13.01,2013-04-23 22:52:00,
2013-04-23 17:58:00,39.0,25.9,29.23,WNW,292,8.4,26.8,59,0.00,,---,0.00,VWS V13.01,2013-04-23 22:58:00,
2013-04-23 18:03:00,38.8,25.7,29.24,NNE,22,8.0,8.0,59,0.00,,---,0.00,VWS V13.01,2013-04-23 23:03:00,
2013-04-23 18:08:00,38.8,25.7,29.24,North,0,6.2,6.2,59,0.00,,---,0.00,VWS V13.01,2013-04-23 23:08:00,
2013-04-23 18:13:00,38.6,25.5,29.24,NNW,338,18.6,18.6,59,0.00,,---,0.00,VWS V13.01,2013-04-23 23:13:00,
2013-04-23 18:18:00,38.4,25.3,29.24,North,0,6.6,6.6,59,0.00,,---,0.00,VWS V13.01,2013-04-23 23:18:00,
2013-04-23 18:24:00,38.4,25.3,29.23,NW,315,20.0,20.0,59,0.00,,---,0.00,VWS V13.01,2013-04-23 23:24:00,
2013-04-23 18:30:00,38.6,25.9,29.24,NNW,338,13.8,13.8,60,0.00,,---,0.00,VWS V13.01,2013-04-23 23:30:00,
2013-04-23 18:35:00,38.4,25.7,29.24,NNE,22,9.2,9.2,60,0.00,,---,0.00,VWS V13.01,2013-04-23 23:35:00,
2013-04-23 18:40:00,38.4,25.3,29.24,NNE,22,10.6,23.2,59,0.00,,---,0.00,VWS V13.01,2013-04-23 23:40:00,
2013-04-23 18:45:00,38.3,25.6,29.24,North,0,8.8,8.8,60,0.00,,---,0.00,VWS V13.01,2013-04-23 23:45:00,
2013-04-23 18:50:00,37.9,25.3,29.24,NNW,338,14.2,14.2,60,0.00,,---,0.00,VWS V13.01,2013-04-23 23:50:00,
2013-04-23 18:55:00,37.9,25.3,29.24,North,0,10.2,12.8,60,0.00,,---,0.00,VWS V13.01,2013-04-23 23:55:00,
2013-04-23 19:00:00,37.9,24.9,29.24,NW,315,20.4,20.4,59,0.00,,---,0.00,VWS V13.01,2013-04-24 00:00:00,
2013-04-23 19:05:00,37.7,24.7,29.24,NW,315,3.4,3.4,59,0.00,,---,0.00,VWS V13.01,2013-04-24 00:05:00,
2013-04-23 19:10:00,37.4,24.8,29.24,NW,315,16.4,16.4,60,0.00,,---,0.00,VWS V13.01,2013-04-24 00:10:00,
2013-04-23 19:15:00,37.2,25.0,29.24,NNW,338,10.6,20.0,61,0.00,,---,0.00,VWS V13.01,2013-04-24 00:15:00,
2013-04-23 19:20:00,37.2,25.4,29.24,North,0,0.0,0.0,62,0.00,,---,0.00,VWS V13.01,2013-04-24 00:20:00,
2013-04-23 19:25:00,37.0,24.8,29.24,NNW,338,23.6,23.6,61,0.00,,---,0.00,VWS V13.01,2013-04-24 00:25:00,
2013-04-23 19:30:00,36.5,24.3,29.24,NW,315,11.0,30.4,61,0.00,,---,0.00,VWS V13.01,2013-04-24 00:30:00,
2013-04-23 19:35:00,36.3,24.5,29.24,NNW,338,13.8,13.8,62,0.00,,---,0.00,VWS V13.01,2013-04-24 00:35:00,
2013-04-23 19:40:00,36.1,24.4,29.24,NNW,338,12.8,25.8,62,0.00,,---,0.00,VWS V13.01,2013-04-24 00:40:00,
2013-04-23 19:45:00,35.7,24.0,29.25,NNW,338,12.4,12.4,62,0.00,,---,0.00,VWS V13.01,2013-04-24 00:45:00,
2013-04-23 19:50:00,35.7,24.0,29.24,NNW,338,22.8,22.8,62,0.00,,---,0.00,VWS V13.01,2013-04-24 00:50:00,
2013-04-23 19:55:00,35.4,24.1,29.25,NNW,338,15.6,17.0,63,0.00,,---,0.00,VWS V13.01,2013-04-24 00:55:00,
2013-04-23 20:00:00,35.2,23.9,29.25,NW,315,17.0,17.0,63,0.00,,---,0.00,VWS V13.01,2013-04-24 01:00:00,
2013-04-23 20:05:00,35.2,23.9,29.25,NNW,338,2.2,2.2,63,0.00,,---,0.00,VWS V13.01,2013-04-24 01:05:00,
2013-04-23 20:10:00,35.2,24.3,29.25,North,0,0.0,5.2,64,0.00,,---,0.00,VWS V13.01,2013-04-24 01:10:00,
2013-04-23 20:15:00,34.8,23.9,29.25,NNW,338,8.4,19.2,64,0.00,,---,0.00,VWS V13.01,2013-04-24 01:15:00,
2013-04-23 20:20:00,34.8,24.2,29.25,NNW,338,7.0,7.0,65,0.00,,---,0.00,VWS V13.01,2013-04-24 01:20:00,
2013-04-23 20:25:00,34.7,24.1,29.25,North,0,5.2,8.8,65,0.00,,---,0.00,VWS V13.01,2013-04-24 01:25:00,
2013-04-23 20:30:00,34.5,24.0,29.25,NNW,338,13.4,13.4,65,0.00,,---,0.00,VWS V13.01,2013-04-24 01:30:00,
2013-04-23 20:35:00,34.3,24.1,29.25,North,0,5.8,5.8,66,0.00,,---,0.00,VWS V13.01,2013-04-24 01:35:00,
2013-04-23 20:40:00,34.3,24.1,29.26,North,0,8.4,8.4,66,0.00,,---,0.00,VWS V13.01,2013-04-24 01:40:00,
2013-04-23 20:45:00,34.3,24.1,29.26,NNW,338,6.6,6.6,66,0.00,,---,0.00,VWS V13.01,2013-04-24 01:45:00,
2013-04-23 20:50:00,34.1,24.0,29.25,NNE,22,8.4,8.4,66,0.00,,---,0.00,VWS V13.01,2013-04-24 01:50:00,
2013-04-23 20:55:00,33.9,23.8,29.25,NNW,338,6.2,6.2,66,0.00,,---,0.00,VWS V13.01,2013-04-24 01:55:00,
2013-04-23 21:00:00,33.9,23.8,29.26,North,0,9.2,11.0,66,0.00,,---,0.00,VWS V13.01,2013-04-24 02:00:00,
2013-04-23 21:05:00,33.8,24.0,29.25,NNW,338,10.2,10.2,67,0.00,,---,0.00,VWS V13.01,2013-04-24 02:05:00,
2013-04-23 21:10:00,33.6,23.8,29.25,NNW,338,5.2,5.2,67,0.00,,---,0.00,VWS V13.01,2013-04-24 02:10:00,
2013-04-23 21:15:00,33.6,24.2,29.25,North,0,9.8,9.8,68,0.00,,---,0.00,VWS V13.01,2013-04-24 02:15:00,
2013-04-23 21:20:00,33.4,24.0,29.26,North,0,3.0,3.0,68,0.00,,---,0.00,VWS V13.01,2013-04-24 02:20:00,
2013-04-23 21:25:00,33.4,24.0,29.26,North,0,7.0,7.0,68,0.00,,---,0.00,VWS V13.01,2013-04-24 02:25:00,
2013-04-23 21:30:00,33.0,23.6,29.26,North,0,7.6,7.6,68,0.00,,---,0.00,VWS V13.01,2013-04-24 02:30:00,
2013-04-23 21:35:00,33.0,24.0,29.26,NNW,338,0.0,0.0,69,0.00,,---,0.00,VWS V13.01,2013-04-24 02:35:00,
2013-04-23 21:40:00,32.9,23.9,29.26,North,0,5.2,5.2,69,0.00,,---,0.00,VWS V13.01,2013-04-24 02:40:00,
2013-04-23 21:45:00,32.7,23.7,29.26,North,0,10.6,10.6,69,0.00,,---,0.00,VWS V13.01,2013-04-24 02:45:00,
2013-04-23 21:52:00,32.7,24.0,29.26,NNW,338,7.6,7.6,70,0.00,,---,0.00,VWS V13.01,2013-04-24 02:52:00,
2013-04-23 21:57:00,32.7,24.0,29.26,North,0,13.4,13.4,70,0.00,,---,0.00,VWS V13.01,2013-04-24 02:57:00,
2013-04-23 22:03:00,32.5,23.8,29.25,North,0,9.8,9.8,70,0.00,,---,0.00,VWS V13.01,2013-04-24 03:03:00,
2013-04-23 22:08:00,32.3,23.6,29.26,North,0,6.2,6.2,70,0.00,,---,0.00,VWS V13.01,2013-04-24 03:08:00,
2013-04-23 22:13:00,32.3,23.6,29.26,North,0,0.0,5.8,70,0.00,,---,0.00,VWS V13.01,2013-04-24 03:13:00,
2013-04-23 22:18:00,32.1,23.8,29.26,North,0,3.4,3.4,71,0.00,,---,0.00,VWS V13.01,2013-04-24 03:18:00,
2013-04-23 22:24:00,32.1,23.8,29.26,North,0,8.0,8.0,71,0.00,,---,0.00,VWS V13.01,2013-04-24 03:24:00,
2013-04-23 22:29:00,32.1,24.1,29.26,North,0,8.0,8.0,72,0.00,,---,0.00,VWS V13.01,2013-04-24 03:29:00,
2013-04-23 22:34:00,32.1,24.1,29.26,North,0,8.8,8.8,72,0.00,,---,0.00,VWS V13.01,2013-04-24 03:34:00,
2013-04-23 22:40:00,31.8,23.8,29.26,North,0,8.8,8.8,72,0.00,,---,0.00,VWS V13.01,2013-04-24 03:40:00,
2013-04-23 22:45:00,31.8,24.1,29.26,NNW,338,8.4,8.4,73,0.00,,---,0.00,VWS V13.01,2013-04-24 03:45:00,
2013-04-23 22:51:00,31.8,24.5,29.26,NNW,338,8.8,12.0,74,0.00,,---,0.00,VWS V13.01,2013-04-24 03:51:00,
2013-04-23 22:56:00,31.6,24.3,29.25,North,0,8.4,8.4,74,0.00,,---,0.00,VWS V13.01,2013-04-24 03:56:00,
2013-04-23 23:01:00,31.6,24.6,29.25,North,0,4.8,4.8,75,0.00,,---,0.00,VWS V13.01,2013-04-24 04:01:00,
2013-04-23 23:02:00,31.6,24.6,29.25,NNW,338,4.4,4.8,75,0.00,,---,0.00,VWS V13.01,2013-04-24 04:02:00,
2013-04-23 23:04:00,31.6,24.6,29.25,NNW,338,12.8,12.8,75,0.00,,---,0.00,VWS V13.01,2013-04-24 04:04:00,
2013-04-23 23:09:00,31.6,24.6,29.25,NNW,338,7.0,7.0,75,0.00,,---,0.00,VWS V13.01,2013-04-24 04:09:00,
2013-04-23 23:14:00,31.6,24.6,29.25,NW,315,9.8,9.8,75,0.00,,---,0.00,VWS V13.01,2013-04-24 04:14:00,
2013-04-23 23:19:00,31.4,24.4,29.25,NNW,338,9.8,9.8,75,0.00,,---,0.00,VWS V13.01,2013-04-24 04:19:00,
2013-04-23 23:24:00,31.2,24.5,29.25,NNW,338,9.2,9.2,76,0.00,,---,0.00,VWS V13.01,2013-04-24 04:24:00,
2013-04-23 23:29:00,31.2,24.5,29.25,NNW,338,14.6,14.6,76,0.00,,---,0.00,VWS V13.01,2013-04-24 04:29:00,
2013-04-23 23:34:00,31.2,24.5,29.25,North,0,8.0,12.0,76,0.00,,---,0.00,VWS V13.01,2013-04-24 04:34:00,
2013-04-23 23:39:00,31.2,24.5,29.25,NNW,338,4.8,4.8,76,0.00,,---,0.00,VWS V13.01,2013-04-24 04:39:00,
2013-04-23 23:44:00,31.2,24.5,29.24,North,0,8.4,8.4,76,0.00,,---,0.00,VWS V13.01,2013-04-24 04:44:00,
2013-04-23 23:49:00,31.2,24.8,29.25,NNW,338,6.2,11.0,77,0.00,,---,0.00,VWS V13.01,2013-04-24 04:49:00,
2013-04-23 23:54:00,31.1,24.8,29.24,NNW,338,0.0,0.0,77,0.00,,---,0.00,VWS V13.01,2013-04-24 04:54:00,
2013-04-23 23:59:00,31.1,24.8,29.25,North,0,8.0,8.0,77,0.00,,---,0.00,VWS V13.01,2013-04-24 04:59:00,